Time;durP1;ratioP1;P1;durP2;ratioP2;P2;SDS_P1;SDS_P2;PMS_P1;PMS_P2;Temp;Humidity;BMP_temperature;BMP_pressure;BME280_temperature;BME280_humidity;BME280_pressure;Samples;Min_cycle;Max_cycle;Signal;HPM_P1;HPM_P2
2021/06/08 00:02:12;;;;;;;13.40;11.40;;;;;;;;;;5027427;28;37808;-82
2021/06/08 00:04:38;;;;;;;15.43;13.23;;;;;;;;;;5036832;28;38720;-82
2021/06/08 00:07:04;;;;;;;14.70;12.50;;;;;;;;;;5024590;28;35858;-82
2021/06/08 00:09:31;;;;;;;18.42;13.30;;;;;;;;;;5027410;28;38163;-82
2021/06/08 00:11:57;;;;;;;17.25;13.35;;;;;;;;;;5037766;28;39114;-82
2021/06/08 00:14:24;;;;;;;14.45;12.95;;;;;;;;;;5031724;28;38460;-81
2021/06/08 00:16:50;;;;;;;15.82;14.13;;;;;;;;;;5023701;28;36297;-81
2021/06/08 00:19:16;;;;;;;16.67;13.52;;;;;;;;;;5030409;28;37610;-81
2021/06/08 00:21:43;;;;;;;15.82;13.50;;;;;;;;;;5054039;27;39293;-82
2021/06/08 00:24:09;;;;;;;17.65;14.38;;;;;;;;;;5054617;28;37557;-82
2021/06/08 00:26:36;;;;;;;17.80;14.75;;;;;;;;;;5060356;28;36177;-82
2021/06/08 00:29:02;;;;;;;16.90;15.10;;;;;;;;;;5052950;27;39636;-81
2021/06/08 00:31:29;;;;;;;15.32;13.70;;;;;;;;;;5053306;27;48719;-82
2021/06/08 00:33:55;;;;;;;15.65;13.85;;;;;;;;;;5057405;28;39693;-81
2021/06/08 00:36:22;;;;;;;19.55;15.57;;;;;;;;;;5056099;28;38072;-81
2021/06/08 00:38:48;;;;;;;18.80;15.27;;;;;;;;;;5062636;28;39835;-81
2021/06/08 00:41:14;;;;;;;21.20;16.00;;;;;;;;;;5060028;28;38689;-84
2021/06/08 00:43:41;;;;;;;18.20;15.68;;;;;;;;;;5060017;28;38712;-80
2021/06/08 00:46:07;;;;;;;19.40;15.30;;;;;;;;;;5056195;27;37672;-80
2021/06/08 00:48:34;;;;;;;17.83;14.57;;;;;;;;;;5057118;28;38940;-81
2021/06/08 00:51:00;;;;;;;17.42;15.05;;;;;;;;;;5059010;27;38445;-81
2021/06/08 00:53:27;;;;;;;17.85;14.48;;;;;;;;;;5050142;28;38870;-81
2021/06/08 00:55:53;;;;;;;20.58;16.73;;;;;;;;;;5044554;28;37541;-81
2021/06/08 00:58:20;;;;;;;18.02;15.02;;;;;;;;;;5026930;28;40610;-81
2021/06/08 01:00:46;;;;;;;19.55;16.17;;;;;;;;;;5038935;28;40279;-81
2021/06/08 01:03:12;;;;;;;19.25;16.10;;;;;;;;;;5035905;27;39313;-82
2021/06/08 01:05:39;;;;;;;18.92;15.75;;;;;;;;;;5045376;27;37355;-82
2021/06/08 01:08:06;;;;;;;19.45;14.98;;;;;;;;;;5042500;28;39671;-82
2021/06/08 01:10:32;;;;;;;21.50;17.35;;;;;;;;;;5046180;28;38850;-81
2021/06/08 01:12:59;;;;;;;20.58;16.58;;;;;;;;;;5031473;28;37870;-81
2021/06/08 01:15:25;;;;;;;19.50;16.67;;;;;;;;;;5040567;28;37300;-82
2021/06/08 01:17:52;;;;;;;18.45;16.25;;;;;;;;;;5040446;28;39817;-82
2021/06/08 01:20:19;;;;;;;22.17;17.88;;;;;;;;;;5046479;27;39814;-83
2021/06/08 01:22:45;;;;;;;21.15;16.20;;;;;;;;;;5035954;28;38724;-82
2021/06/08 01:25:12;;;;;;;20.58;14.70;;;;;;;;;;5037435;28;37370;-82
2021/06/08 01:27:39;;;;;;;19.58;16.02;;;;;;;;;;5037027;28;39825;-82
2021/06/08 01:30:06;;;;;;;19.40;15.77;;;;;;;;;;5033997;28;39443;-82
2021/06/08 01:32:33;;;;;;;18.25;14.00;;;;;;;;;;5030391;28;46832;-81
2021/06/08 01:35:00;;;;;;;18.98;15.65;;;;;;;;;;5036755;28;37545;-82
2021/06/08 01:37:26;;;;;;;18.60;16.42;;;;;;;;;;5031043;28;39976;-81
2021/06/08 01:39:53;;;;;;;21.70;15.25;;;;;;;;;;5037210;28;39273;-81
2021/06/08 01:42:19;;;;;;;16.10;13.75;;;;;;;;;;5033766;28;39621;-82
2021/06/08 01:44:46;;;;;;;16.65;14.68;;;;;;;;;;5032609;28;38006;-81
2021/06/08 01:47:13;;;;;;;18.70;14.73;;;;;;;;;;5030272;28;39788;-82
2021/06/08 01:49:39;;;;;;;17.25;14.30;;;;;;;;;;5038197;28;39001;-81
2021/06/08 01:52:09;;;;;;;19.65;15.50;;;;;;;;;;5033753;28;37939;-81
2021/06/08 01:54:55;;;;;;;17.77;14.60;;;;;;;;;;5038998;28;36337;-82
2021/06/08 01:57:22;;;;;;;16.42;13.73;;;;;;;;;;5035021;28;38960;-81
2021/06/08 02:00:00;;;;;;;16.50;14.43;;;;;;;;;;5038377;28;38681;-81
2021/06/08 02:02:53;;;;;;;16.83;14.73;;;;;;;;;;5032893;28;40085;-81
2021/06/08 02:05:28;;;;;;;18.13;14.85;;;;;;;;;;5018253;27;37561;-82
2021/06/08 02:07:57;;;;;;;17.95;14.07;;;;;;;;;;5054096;27;39656;-81
2021/06/08 02:10:27;;;;;;;17.83;14.82;;;;;;;;;;5052715;28;39380;-81
2021/06/08 02:12:55;;;;;;;21.38;16.70;;;;;;;;;;5056399;28;39229;-81
2021/06/08 02:15:22;;;;;;;18.55;15.35;;;;;;;;;;5060269;27;37940;-82
2021/06/08 02:17:53;;;;;;;20.02;17.38;;;;;;;;;;5049053;28;39791;-81
2021/06/08 02:20:21;;;;;;;19.13;15.73;;;;;;;;;;5058949;28;37356;-82
2021/06/08 02:22:50;;;;;;;20.30;16.77;;;;;;;;;;5053876;28;38424;-83
2021/06/08 02:25:18;;;;;;;23.70;18.70;;;;;;;;;;5048419;27;37049;-83
2021/06/08 02:27:45;;;;;;;20.88;17.50;;;;;;;;;;5058639;27;40203;-81
2021/06/08 02:30:12;;;;;;;21.27;17.77;;;;;;;;;;5049704;28;39781;-82
2021/06/08 02:32:39;;;;;;;21.35;18.73;;;;;;;;;;5056290;28;39822;-83
2021/06/08 02:35:06;;;;;;;21.25;18.10;;;;;;;;;;5051936;27;37976;-81
2021/06/08 02:37:33;;;;;;;22.73;17.88;;;;;;;;;;5053514;27;39357;-82
2021/06/08 02:40:00;;;;;;;23.90;18.38;;;;;;;;;;5046151;28;37675;-81
2021/06/08 02:42:26;;;;;;;23.80;19.00;;;;;;;;;;5034800;27;38983;-82
2021/06/08 02:44:53;;;;;;;20.58;18.30;;;;;;;;;;5052903;28;36081;-83
2021/06/08 02:47:20;;;;;;;21.75;18.77;;;;;;;;;;5055254;27;40420;-82
2021/06/08 02:49:47;;;;;;;27.05;20.20;;;;;;;;;;5054878;27;39070;-83
2021/06/08 02:52:15;;;;;;;24.75;19.40;;;;;;;;;;5048695;27;38412;-81
2021/06/08 02:54:42;;;;;;;23.80;20.00;;;;;;;;;;5053907;27;37117;-81
2021/06/08 02:57:09;;;;;;;21.45;19.15;;;;;;;;;;5049774;28;39133;-81
2021/06/08 02:59:36;;;;;;;25.77;20.88;;;;;;;;;;5071751;27;37398;-82
2021/06/08 03:02:05;;;;;;;26.05;21.67;;;;;;;;;;5052486;27;39055;-82
2021/06/08 03:04:38;;;;;;;22.88;19.85;;;;;;;;;;5054136;28;37018;-82
2021/06/08 03:07:05;;;;;;;27.02;22.10;;;;;;;;;;5059735;27;39801;-82
2021/06/08 03:09:35;;;;;;;23.80;19.52;;;;;;;;;;5049884;28;38561;-82
2021/06/08 03:12:02;;;;;;;24.05;20.58;;;;;;;;;;5054312;28;39356;-83
2021/06/08 03:14:29;;;;;;;26.02;21.20;;;;;;;;;;5051484;28;49259;-83
2021/06/08 03:16:57;;;;;;;24.85;21.63;;;;;;;;;;5061022;28;40062;-82
2021/06/08 03:19:25;;;;;;;28.30;21.90;;;;;;;;;;5056526;28;39278;-83
2021/06/08 03:21:53;;;;;;;29.65;22.67;;;;;;;;;;5060005;27;38387;-82
2021/06/08 03:24:22;;;;;;;25.58;20.80;;;;;;;;;;5048611;28;36978;-82
2021/06/08 03:26:49;;;;;;;25.10;20.08;;;;;;;;;;5063388;28;41008;-82
2021/06/08 03:29:16;;;;;;;23.88;19.90;;;;;;;;;;5047526;27;38402;-83
2021/06/08 03:31:44;;;;;;;24.27;20.15;;;;;;;;;;5047622;28;38858;-82
2021/06/08 03:34:17;;;;;;;26.20;21.20;;;;;;;;;;5055970;28;37958;-82
2021/06/08 03:36:43;;;;;;;;;;;;;;;;;;5057634;27;40003;-83
2021/06/08 03:39:10;;;;;;;24.15;18.95;;;;;;;;;;5052618;28;37104;-83
2021/06/08 03:41:37;;;;;;;22.92;20.50;;;;;;;;;;5048585;28;38478;-82
2021/06/08 03:44:03;;;;;;;20.95;18.23;;;;;;;;;;5053682;28;37280;-82
2021/06/08 03:46:30;;;;;;;23.75;21.10;;;;;;;;;;5057988;28;41690;-82
2021/06/08 03:48:57;;;;;;;24.73;20.45;;;;;;;;;;5042925;28;38762;-83
2021/06/08 03:51:27;;;;;;;22.60;18.92;;;;;;;;;;5043261;28;37465;-82
2021/06/08 03:53:53;;;;;;;21.92;19.55;;;;;;;;;;5035501;28;35991;-82
2021/06/08 03:56:20;;;;;;;21.13;18.23;;;;;;;;;;5036329;28;39742;-82
2021/06/08 03:58:47;;;;;;;21.73;19.40;;;;;;;;;;5062157;28;42018;-80
2021/06/08 04:01:14;;;;;;;24.73;19.67;;;;;;;;;;5032143;28;39015;-82
2021/06/08 04:03:40;;;;;;;21.05;18.45;;;;;;;;;;5051143;28;36898;-81
2021/06/08 04:06:07;;;;;;;26.52;19.55;;;;;;;;;;5033377;27;40073;-81
2021/06/08 04:08:33;;;;;;;19.60;17.20;;;;;;;;;;5050428;28;38974;-82
2021/06/08 04:11:00;;;;;;;21.40;17.98;;;;;;;;;;5039167;28;37637;-81
2021/06/08 04:13:26;;;;;;;24.55;20.60;;;;;;;;;;5039601;28;37538;-81
2021/06/08 04:15:53;;;;;;;24.73;19.30;;;;;;;;;;5032217;28;39933;-81
2021/06/08 04:18:20;;;;;;;21.90;18.23;;;;;;;;;;5049104;28;40057;-82
2021/06/08 04:20:47;;;;;;;20.70;17.67;;;;;;;;;;5040515;27;38517;-83
2021/06/08 04:23:14;;;;;;;21.42;18.52;;;;;;;;;;5046615;28;37096;-82
2021/06/08 04:25:40;;;;;;;21.65;18.15;;;;;;;;;;5049407;28;39478;-82
2021/06/08 04:28:07;;;;;;;23.10;19.05;;;;;;;;;;5053915;27;41159;-83
2021/06/08 04:30:35;;;;;;;24.20;19.48;;;;;;;;;;5060837;28;38504;-82
2021/06/08 04:33:01;;;;;;;21.05;17.73;;;;;;;;;;5059824;28;38739;-82
2021/06/08 04:35:27;;;;;;;22.02;17.90;;;;;;;;;;5050334;28;46979;-81
2021/06/08 04:37:54;;;;;;;20.13;17.70;;;;;;;;;;5054885;27;38878;-82
2021/06/08 04:40:21;;;;;;;19.42;17.38;;;;;;;;;;5049404;27;37892;-82
2021/06/08 04:42:49;;;;;;;20.25;17.23;;;;;;;;;;5073642;28;37576;-82
2021/06/08 04:45:16;;;;;;;19.88;17.20;;;;;;;;;;5062043;27;39190;-81
2021/06/08 04:47:43;;;;;;;22.52;17.50;;;;;;;;;;5055154;28;37602;-80
2021/06/08 04:50:10;;;;;;;19.35;16.80;;;;;;;;;;5081146;27;39381;-82
2021/06/08 04:52:37;;;;;;;19.92;16.67;;;;;;;;;;5064592;28;37817;-82
2021/06/08 04:55:04;;;;;;;18.90;15.82;;;;;;;;;;5059612;27;39360;-82
2021/06/08 04:57:31;;;;;;;18.23;14.63;;;;;;;;;;5061836;28;47682;-82
2021/06/08 05:00:07;;;;;;;20.95;14.85;;;;;;;;;;5055482;28;39897;-83
2021/06/08 05:02:39;;;;;;;17.77;14.02;;;;;;;;;;5051096;27;49420;-81
2021/06/08 05:05:05;;;;;;;;;;;;;;;;;;5056337;28;38949;-84
2021/06/08 05:07:33;;;;;;;14.77;13.20;;;;;;;;;;5055343;28;38505;-82
2021/06/08 05:10:00;;;;;;;15.82;13.77;;;;;;;;;;5058050;28;39316;-81
2021/06/08 05:12:27;;;;;;;15.52;13.07;;;;;;;;;;5057625;28;37942;-81
2021/06/08 05:14:56;;;;;;;13.50;11.93;;;;;;;;;;5053306;28;39834;-82
2021/06/08 05:17:24;;;;;;;13.95;11.43;;;;;;;;;;5063009;27;39556;-82
2021/06/08 05:19:52;;;;;;;14.65;11.10;;;;;;;;;;5049101;28;40014;-82
2021/06/08 05:22:19;;;;;;;13.95;11.85;;;;;;;;;;5041863;27;36930;-82
2021/06/08 05:24:56;;;;;;;11.77;10.15;;;;;;;;;;5041399;27;39857;-81
2021/06/08 05:27:23;;;;;;;13.95;11.30;;;;;;;;;;5034640;28;38876;-82
2021/06/08 05:29:53;;;;;;;14.50;9.85;;;;;;;;;;5034150;28;39895;-81
2021/06/08 05:32:20;;;;;;;11.35;9.88;;;;;;;;;;5039153;28;37595;-81
2021/06/08 05:34:46;;;;;;;12.63;10.27;;;;;;;;;;5039006;27;38955;-82
2021/06/08 05:37:14;;;;;;;12.38;9.45;;;;;;;;;;5046387;27;36697;-81
2021/06/08 05:39:41;;;;;;;10.68;9.50;;;;;;;;;;5063232;28;38911;-81
2021/06/08 05:42:08;;;;;;;11.75;9.32;;;;;;;;;;5038655;28;38578;-80
2021/06/08 05:44:35;;;;;;;11.32;10.18;;;;;;;;;;5068150;28;39240;-81
2021/06/08 05:47:05;;;;;;;10.50;9.07;;;;;;;;;;5031260;28;40170;-81
2021/06/08 05:49:33;;;;;;;9.65;8.13;;;;;;;;;;5035897;28;38425;-81
2021/06/08 05:52:00;;;;;;;11.15;8.70;;;;;;;;;;5036965;28;36469;-81
2021/06/08 05:54:27;;;;;;;12.90;9.18;;;;;;;;;;5063198;28;39003;-81
2021/06/08 05:56:54;;;;;;;7.65;6.72;;;;;;;;;;5034716;27;37178;-80
2021/06/08 05:59:21;;;;;;;11.00;8.70;;;;;;;;;;5038511;28;38384;-84
2021/06/08 06:01:48;;;;;;;11.23;8.45;;;;;;;;;;5039822;28;37215;-84
2021/06/08 06:04:20;;;;;;;10.00;7.82;;;;;;;;;;5039698;28;40177;-84
2021/06/08 06:06:47;;;;;;;9.55;7.47;;;;;;;;;;5078981;28;39248;-85
2021/06/08 06:09:14;;;;;;;9.15;7.30;;;;;;;;;;5034717;28;36593;-85
2021/06/08 06:11:42;;;;;;;9.63;7.70;;;;;;;;;;5035395;28;37153;-84
2021/06/08 06:14:09;;;;;;;10.30;7.75;;;;;;;;;;5038364;28;39860;-83
2021/06/08 06:16:41;;;;;;;10.60;7.18;;;;;;;;;;5050164;28;40264;-85
2021/06/08 06:19:07;;;;;;;10.70;6.73;;;;;;;;;;5035943;28;37851;-82
2021/06/08 06:21:35;;;;;;;7.43;6.47;;;;;;;;;;5065230;28;36953;-82
2021/06/08 06:24:01;;;;;;;7.88;6.78;;;;;;;;;;5033632;28;39175;-82
2021/06/08 06:26:28;;;;;;;8.88;6.78;;;;;;;;;;5054190;27;49000;-82
2021/06/08 06:28:55;;;;;;;9.30;7.30;;;;;;;;;;5061978;28;40250;-83
2021/06/08 06:31:22;;;;;;;8.70;6.53;;;;;;;;;;5065694;27;38471;-82
2021/06/08 06:33:53;;;;;;;9.20;7.10;;;;;;;;;;5068954;27;39142;-81
2021/06/08 06:36:20;;;;;;;8.77;6.57;;;;;;;;;;5059994;27;38960;-81
2021/06/08 06:38:48;;;;;;;10.07;6.22;;;;;;;;;;5061136;28;39416;-81
2021/06/08 06:41:16;;;;;;;8.05;6.45;;;;;;;;;;5064604;28;37658;-80
2021/06/08 06:43:44;;;;;;;9.07;6.70;;;;;;;;;;5056497;28;38994;-80
2021/06/08 06:46:10;;;;;;;7.60;6.53;;;;;;;;;;5062538;27;39588;-82
2021/06/08 06:48:37;;;;;;;6.50;5.53;;;;;;;;;;5060073;28;38664;-82
2021/06/08 06:51:03;;;;;;;7.60;6.45;;;;;;;;;;5062689;27;38502;-81
2021/06/08 06:53:30;;;;;;;10.38;6.55;;;;;;;;;;5042464;28;40860;-82
2021/06/08 06:55:56;;;;;;;7.82;6.32;;;;;;;;;;5053632;28;40108;-83
2021/06/08 06:58:23;;;;;;;10.80;6.45;;;;;;;;;;5059669;28;38384;-82
2021/06/08 07:00:51;;;;;;;8.07;6.45;;;;;;;;;;5066639;27;37514;-82
2021/06/08 07:03:18;;;;;;;7.10;6.40;;;;;;;;;;5062141;28;39605;-80
2021/06/08 07:05:48;;;;;;;6.57;5.22;;;;;;;;;;5058691;27;38828;-86
2021/06/08 07:08:15;;;;;;;9.02;6.15;;;;;;;;;;5054886;28;38686;-83
2021/06/08 07:10:41;;;;;;;9.55;6.25;;;;;;;;;;5053805;28;37075;-82
2021/06/08 07:13:08;;;;;;;7.28;5.85;;;;;;;;;;5060329;28;39402;-85
2021/06/08 07:15:35;;;;;;;6.72;5.45;;;;;;;;;;5062176;28;38991;-84
2021/06/08 07:18:06;;;;;;;8.77;5.47;;;;;;;;;;5064961;28;38536;-83
2021/06/08 07:20:32;;;;;;;6.78;5.18;;;;;;;;;;5053047;28;47455;-83
2021/06/08 07:23:00;;;;;;;8.77;5.97;;;;;;;;;;5059600;28;39219;-83
2021/06/08 07:25:27;;;;;;;7.65;6.10;;;;;;;;;;5059610;28;40032;-84
2021/06/08 07:27:54;;;;;;;6.07;5.45;;;;;;;;;;5047440;28;39263;-83
2021/06/08 07:30:21;;;;;;;11.23;6.32;;;;;;;;;;5057824;27;38186;-83
2021/06/08 07:33:00;;;;;;;9.27;6.97;;;;;;;;;;5054994;28;40517;-85
2021/06/08 07:35:35;;;;;;;9.20;7.43;;;;;;;;;;5060154;27;41218;-83
2021/06/08 07:38:07;;;;;;;10.02;7.25;;;;;;;;;;5070437;28;39606;-83
2021/06/08 07:40:37;;;;;;;11.18;7.20;;;;;;;;;;5069081;28;47864;-85
2021/06/08 07:43:04;;;;;;;8.18;7.28;;;;;;;;;;5064997;27;39544;-84
2021/06/08 07:45:36;;;;;;;9.05;7.32;;;;;;;;;;5067546;28;39043;-82
2021/06/08 07:48:04;;;;;;;10.32;7.25;;;;;;;;;;5069557;28;39385;-83
2021/06/08 07:50:38;;;;;;;9.77;7.53;;;;;;;;;;5064418;27;36651;-85
2021/06/08 07:53:04;;;;;;;8.18;7.15;;;;;;;;;;5057609;28;38992;-83
2021/06/08 07:55:31;;;;;;;8.88;7.15;;;;;;;;;;5053844;28;39117;-84
2021/06/08 07:57:58;;;;;;;8.55;6.40;;;;;;;;;;5061154;28;39005;-83
2021/06/08 08:00:25;;;;;;;11.85;6.85;;;;;;;;;;5060398;27;37323;-83
2021/06/08 08:02:55;;;;;;;8.93;6.65;;;;;;;;;;5056727;28;39542;-83
2021/06/08 08:05:22;;;;;;;10.20;7.00;;;;;;;;;;5064220;28;38594;-83
2021/06/08 08:07:49;;;;;;;7.15;6.45;;;;;;;;;;5071039;28;38913;-84
2021/06/08 08:10:16;;;;;;;9.15;6.55;;;;;;;;;;5064724;27;37707;-83
2021/06/08 08:12:43;;;;;;;9.80;6.40;;;;;;;;;;5067537;28;40294;-82
2021/06/08 08:15:11;;;;;;;8.70;5.72;;;;;;;;;;5055533;27;39295;-83
2021/06/08 08:17:38;;;;;;;7.75;5.85;;;;;;;;;;5065632;28;38829;-83
2021/06/08 08:20:06;;;;;;;7.18;5.97;;;;;;;;;;5057032;28;36206;-83
2021/06/08 08:22:32;;;;;;;8.63;6.35;;;;;;;;;;5071091;28;40709;-83
2021/06/08 08:24:58;;;;;;;7.90;5.97;;;;;;;;;;5068126;27;38626;-81
2021/06/08 08:27:26;;;;;;;8.07;6.50;;;;;;;;;;5055366;28;39260;-80
2021/06/08 08:29:52;;;;;;;6.72;6.07;;;;;;;;;;5070641;28;38566;-83
2021/06/08 08:32:19;;;;;;;7.60;5.28;;;;;;;;;;5065218;27;39100;-83
2021/06/08 08:34:45;;;;;;;6.00;5.43;;;;;;;;;;5063185;28;39540;-82
2021/06/08 08:37:12;;;;;;;7.38;6.22;;;;;;;;;;5067989;27;38523;-81
2021/06/08 08:39:38;;;;;;;7.30;5.80;;;;;;;;;;5064337;27;36973;-83
2021/06/08 08:42:05;;;;;;;7.63;5.03;;;;;;;;;;5055432;27;38311;-82
2021/06/08 08:44:32;;;;;;;8.23;5.20;;;;;;;;;;5057031;28;39573;-81
2021/06/08 08:46:58;;;;;;;8.98;5.18;;;;;;;;;;5052986;28;38197;-82
2021/06/08 08:49:26;;;;;;;4.53;4.13;;;;;;;;;;5067181;28;37327;-81
2021/06/08 08:51:54;;;;;;;5.13;3.92;;;;;;;;;;5058186;27;38314;-80
2021/06/08 08:54:21;;;;;;;5.72;3.88;;;;;;;;;;5062299;27;39244;-80
2021/06/08 08:56:49;;;;;;;6.10;4.70;;;;;;;;;;5056656;28;38736;-81
2021/06/08 08:59:16;;;;;;;9.10;4.70;;;;;;;;;;5048268;28;36439;-81
2021/06/08 09:01:46;;;;;;;5.38;4.85;;;;;;;;;;5067531;28;39947;-80
2021/06/08 09:04:13;;;;;;;3.80;3.47;;;;;;;;;;5062352;28;38788;-81
2021/06/08 09:06:39;;;;;;;5.90;5.20;;;;;;;;;;5060715;28;39330;-81
2021/06/08 09:09:06;;;;;;;6.97;4.90;;;;;;;;;;5071381;27;37608;-80
2021/06/08 09:11:38;;;;;;;5.88;4.53;;;;;;;;;;5066069;27;38977;-81
2021/06/08 09:14:06;;;;;;;5.47;4.72;;;;;;;;;;5061463;28;38023;-82
2021/06/08 09:16:33;;;;;;;6.78;5.60;;;;;;;;;;5063261;28;38920;-81
2021/06/08 09:19:10;;;;;;;6.15;5.55;;;;;;;;;;5065342;28;37378;-81
2021/06/08 09:21:39;;;;;;;6.68;5.38;;;;;;;;;;5038169;28;47708;-81
2021/06/08 09:24:22;;;;;;;5.50;4.97;;;;;;;;;;5065267;28;39193;-80
2021/06/08 09:26:50;;;;;;;5.78;4.82;;;;;;;;;;5041376;28;36576;-81
2021/06/08 09:29:34;;;;;;;5.53;4.70;;;;;;;;;;5040582;28;37522;-81
2021/06/08 09:32:16;;;;;;;5.25;4.75;;;;;;;;;;5043525;28;40801;-80
2021/06/08 09:34:46;;;;;;;6.25;4.90;;;;;;;;;;5040274;28;47096;-80
2021/06/08 09:37:13;;;;;;;5.50;4.60;;;;;;;;;;5043175;28;39851;-80
2021/06/08 09:39:45;;;;;;;6.25;4.95;;;;;;;;;;5039825;28;38003;-80
2021/06/08 09:42:24;;;;;;;5.75;5.10;;;;;;;;;;5075579;28;39606;-79
2021/06/08 09:44:51;;;;;;;6.80;5.00;;;;;;;;;;5048408;28;39590;-82
2021/06/08 09:47:30;;;;;;;7.43;4.22;;;;;;;;;;5044740;28;39873;-82
2021/06/08 09:49:58;;;;;;;7.03;5.07;;;;;;;;;;5060964;28;38642;-81
2021/06/08 09:52:24;;;;;;;7.25;4.60;;;;;;;;;;5076304;27;39666;-81
2021/06/08 09:54:52;;;;;;;6.18;5.05;;;;;;;;;;5032757;28;39235;-80
2021/06/08 09:57:28;;;;;;;6.25;3.72;;;;;;;;;;5046338;28;39523;-79
2021/06/08 09:59:59;;;;;;;7.05;4.63;;;;;;;;;;5048915;28;38044;-80
2021/06/08 10:02:40;;;;;;;8.07;4.00;;;;;;;;;;5045345;28;40173;-81
2021/06/08 10:05:21;;;;;;;3.10;2.80;;;;;;;;;;5043829;28;39983;-81
2021/06/08 10:07:48;;;;;;;4.05;3.58;;;;;;;;;;5055274;28;37465;-82
2021/06/08 10:10:17;;;;;;;5.60;5.10;;;;;;;;;;5045816;28;37720;-82
2021/06/08 10:13:03;;;;;;;4.60;3.80;;;;;;;;;;5071779;28;40069;-81
2021/06/08 10:15:31;;;;;;;4.88;3.65;;;;;;;;;;5073931;28;49070;-80
2021/06/08 10:17:59;;;;;;;6.32;3.63;;;;;;;;;;5068548;28;39176;-80
2021/06/08 10:20:26;;;;;;;5.78;4.03;;;;;;;;;;5060553;27;38448;-82
2021/06/08 10:22:53;;;;;;;5.78;4.45;;;;;;;;;;5057660;28;39071;-82
2021/06/08 10:25:19;;;;;;;5.28;4.78;;;;;;;;;;5063680;28;37484;-81
2021/06/08 10:27:46;;;;;;;5.28;3.78;;;;;;;;;;5064929;28;38575;-81
2021/06/08 10:30:12;;;;;;;4.95;3.80;;;;;;;;;;5066037;27;36747;-81
2021/06/08 10:32:39;;;;;;;4.68;3.75;;;;;;;;;;5064392;28;41354;-80
2021/06/08 10:35:06;;;;;;;4.38;3.70;;;;;;;;;;5060566;27;39151;-81
2021/06/08 10:37:33;;;;;;;4.32;3.03;;;;;;;;;;5046211;28;38262;-81
2021/06/08 10:40:00;;;;;;;5.90;3.47;;;;;;;;;;5058816;28;37171;-82
2021/06/08 10:42:27;;;;;;;5.50;3.67;;;;;;;;;;5053658;27;38633;-81
2021/06/08 10:45:01;;;;;;;3.75;3.10;;;;;;;;;;5060997;28;38836;-80
2021/06/08 10:47:35;;;;;;;5.82;4.53;;;;;;;;;;5052862;28;47594;-81
2021/06/08 10:50:02;;;;;;;5.60;4.65;;;;;;;;;;5064789;28;37395;-80
2021/06/08 10:52:44;;;;;;;4.75;4.22;;;;;;;;;;5052108;28;47178;-79
2021/06/08 10:55:11;;;;;;;5.93;3.70;;;;;;;;;;5055129;27;38133;-80
2021/06/08 10:57:44;;;;;;;6.30;4.13;;;;;;;;;;5025408;28;39898;-79
2021/06/08 11:00:30;;;;;;;4.15;3.10;;;;;;;;;;5031350;27;36939;-79
2021/06/08 11:03:01;;;;;;;3.17;2.55;;;;;;;;;;5070696;28;40767;-80
2021/06/08 11:05:50;;;;;;;3.63;3.10;;;;;;;;;;5052372;27;50052;-80
2021/06/08 11:08:17;;;;;;;5.05;2.75;;;;;;;;;;5059698;28;39286;-79
2021/06/08 11:10:45;;;;;;;3.70;2.72;;;;;;;;;;5050554;28;37444;-80
2021/06/08 11:13:16;;;;;;;5.03;3.70;;;;;;;;;;5050121;28;38144;-79
2021/06/08 11:15:50;;;;;;;4.32;2.97;;;;;;;;;;5058673;28;41541;-80
2021/06/08 11:18:22;;;;;;;4.53;1.90;;;;;;;;;;5052350;27;38374;-80
2021/06/08 11:20:48;;;;;;;2.88;2.22;;;;;;;;;;5060473;28;37880;-80
2021/06/08 11:23:34;;;;;;;2.85;2.20;;;;;;;;;;5069589;27;40663;-80
2021/06/08 11:26:00;;;;;;;2.97;2.35;;;;;;;;;;5057542;28;37457;-79
2021/06/08 11:28:40;;;;;;;2.90;2.60;;;;;;;;;;5059999;28;48508;-79
2021/06/08 11:31:07;;;;;;;3.75;2.80;;;;;;;;;;5059756;28;37152;-79
2021/06/08 11:33:39;;;;;;;2.85;2.40;;;;;;;;;;5059877;28;40556;-79
2021/06/08 11:36:22;;;;;;;3.83;3.25;;;;;;;;;;5057572;28;41370;-80
2021/06/08 11:38:51;;;;;;;7.50;3.42;;;;;;;;;;5061993;28;40138;-80
2021/06/08 11:41:18;;;;;;;5.45;2.53;;;;;;;;;;5058611;28;37938;-82
2021/06/08 11:43:47;;;;;;;4.25;2.10;;;;;;;;;;5062361;28;40428;-80
2021/06/08 11:46:13;;;;;;;4.03;2.38;;;;;;;;;;5046042;28;40071;-78
2021/06/08 11:48:39;;;;;;;3.05;2.28;;;;;;;;;;5059435;28;37724;-80
2021/06/08 11:51:15;;;;;;;2.75;2.33;;;;;;;;;;5060475;27;37859;-82
2021/06/08 11:53:57;;;;;;;4.40;2.58;;;;;;;;;;5063611;28;39923;-80
2021/06/08 11:56:26;;;;;;;;;;;;;;;;;;5049676;27;37525;-81
2021/06/08 11:59:05;;;;;;;3.92;3.25;;;;;;;;;;5042354;28;37164;-82
2021/06/08 12:01:38;;;;;;;2.10;1.75;;;;;;;;;;5036876;28;49108;-82
2021/06/08 12:04:05;;;;;;;3.05;2.15;;;;;;;;;;5065056;28;39066;-80
2021/06/08 12:06:50;;;;;;;2.22;1.40;;;;;;;;;;5035390;28;38868;-82
2021/06/08 12:09:17;;;;;;;4.15;2.10;;;;;;;;;;5034418;28;37834;-80
2021/06/08 12:11:44;;;;;;;4.43;3.40;;;;;;;;;;5038657;28;39095;-80
2021/06/08 12:14:11;;;;;;;4.15;2.55;;;;;;;;;;5068698;28;39973;-81
2021/06/08 12:16:37;;;;;;;3.08;2.25;;;;;;;;;;5034690;28;39045;-80
2021/06/08 12:19:08;;;;;;;2.33;2.10;;;;;;;;;;5062908;28;38642;-80
2021/06/08 12:21:34;;;;;;;2.83;2.20;;;;;;;;;;5037822;28;37687;-81
2021/06/08 12:24:01;;;;;;;15.90;11.27;;;;;;;;;;5058377;28;38581;-80
2021/06/08 12:26:28;;;;;;;16.02;12.55;;;;;;;;;;5041418;28;40088;-80
2021/06/08 12:29:05;;;;;;;11.82;10.50;;;;;;;;;;5041495;28;39538;-81
2021/06/08 12:31:31;;;;;;;15.10;12.68;;;;;;;;;;5053840;27;49305;-83
2021/06/08 12:33:58;;;;;;;17.30;14.27;;;;;;;;;;5064294;28;38695;-83
2021/06/08 12:36:25;;;;;;;18.15;15.15;;;;;;;;;;5052489;27;40151;-81
2021/06/08 12:38:57;;;;;;;16.65;14.95;;;;;;;;;;5055503;27;39089;-81
2021/06/08 12:41:28;;;;;;;17.35;14.07;;;;;;;;;;5058793;27;38106;-81
2021/06/08 12:43:58;;;;;;;19.15;15.35;;;;;;;;;;5048805;28;42455;-79
2021/06/08 12:46:36;;;;;;;17.35;13.32;;;;;;;;;;5048789;28;40291;-80
2021/06/08 12:49:09;;;;;;;22.40;15.60;;;;;;;;;;5066933;27;39370;-78
2021/06/08 12:51:36;;;;;;;15.93;13.48;;;;;;;;;;5063100;28;40301;-79
2021/06/08 12:54:04;;;;;;;18.40;14.07;;;;;;;;;;5059089;28;37617;-79
2021/06/08 12:56:30;;;;;;;21.05;16.55;;;;;;;;;;5058602;28;37310;-80
2021/06/08 12:58:57;;;;;;;18.33;15.27;;;;;;;;;;5051462;27;38141;-80
2021/06/08 13:01:24;;;;;;;24.48;19.25;;;;;;;;;;5047621;27;36155;-79
2021/06/08 13:03:50;;;;;;;21.52;19.13;;;;;;;;;;5057727;28;37799;-80
2021/06/08 13:06:25;;;;;;;23.02;17.25;;;;;;;;;;5047878;27;38597;-80
2021/06/08 13:08:52;;;;;;;19.77;16.88;;;;;;;;;;5065611;27;37758;-80
2021/06/08 13:11:28;;;;;;;27.55;19.85;;;;;;;;;;5055177;27;38975;-79
2021/06/08 13:13:55;;;;;;;26.52;20.33;;;;;;;;;;5048284;28;38096;-80
2021/06/08 13:16:32;;;;;;;23.17;18.58;;;;;;;;;;5045868;27;39132;-79
2021/06/08 13:19:17;;;;;;;25.27;18.98;;;;;;;;;;5031936;27;40639;-78
2021/06/08 13:21:44;;;;;;;18.60;16.63;;;;;;;;;;5038363;28;48618;-78
2021/06/08 13:24:18;;;;;;;16.90;15.13;;;;;;;;;;5033966;28;38219;-78
2021/06/08 13:26:45;;;;;;;22.73;16.67;;;;;;;;;;5047121;27;39122;-80
2021/06/08 13:29:14;;;;;;;17.92;16.10;;;;;;;;;;5010126;28;20100;-79
2021/06/08 13:31:41;;;;;;;18.75;16.63;;;;;;;;;;5027945;28;38245;-79
2021/06/08 13:34:24;;;;;;;21.30;17.88;;;;;;;;;;5031476;28;39013;-79
2021/06/08 13:36:57;;;;;;;20.40;17.63;;;;;;;;;;5031480;27;38720;-78
2021/06/08 13:39:26;;;;;;;23.20;16.42;;;;;;;;;;5031496;28;37916;-79
2021/06/08 13:41:56;;;;;;;19.35;17.45;;;;;;;;;;5058557;28;36482;-79
2021/06/08 13:44:23;;;;;;;18.45;16.52;;;;;;;;;;5030173;28;38825;-78
2021/06/08 13:46:53;;;;;;;20.17;17.02;;;;;;;;;;5029150;28;38701;-80
2021/06/08 13:49:19;;;;;;;22.02;17.50;;;;;;;;;;5032498;28;37528;-79
2021/06/08 13:51:55;;;;;;;18.65;16.20;;;;;;;;;;5046081;27;36077;-79
2021/06/08 13:54:21;;;;;;;22.67;16.25;;;;;;;;;;5043522;28;38106;-78
2021/06/08 13:57:05;;;;;;;26.70;19.73;;;;;;;;;;5029004;28;38517;-78
2021/06/08 14:02:48;;;;;;;21.45;18.60;;;;;;;;;;5021553;28;49352;-79
2021/06/08 14:05:36;;;;;;;20.55;18.38;;;;;;;;;;5030238;27;40017;-79
2021/06/08 14:08:12;;;;;;;26.30;20.17;;;;;;;;;;5059940;28;38635;-78
2021/06/08 14:10:48;;;;;;;20.88;18.83;;;;;;;;;;5040191;28;37165;-79
2021/06/08 14:13:14;;;;;;;21.33;19.02;;;;;;;;;;5046556;28;37534;-79
2021/06/08 14:15:48;;;;;;;26.52;22.10;;;;;;;;;;5048248;28;38210;-79
2021/06/08 14:18:15;;;;;;;24.15;18.67;;;;;;;;;;5062699;28;39376;-79
2021/06/08 14:20:42;;;;;;;22.02;19.70;;;;;;;;;;5055698;28;39265;-80
2021/06/08 14:23:09;;;;;;;21.10;18.77;;;;;;;;;;5062626;28;37131;-80
2021/06/08 14:25:36;;;;;;;22.35;18.10;;;;;;;;;;5058183;28;38149;-80
2021/06/08 14:28:03;;;;;;;21.15;18.63;;;;;;;;;;5054428;27;40015;-80
2021/06/08 14:30:30;;;;;;;27.55;20.23;;;;;;;;;;5057363;27;39009;-80
2021/06/08 14:32:56;;;;;;;18.88;16.50;;;;;;;;;;5051467;28;36213;-80
2021/06/08 14:35:23;;;;;;;21.88;19.45;;;;;;;;;;5048553;27;38640;-80
2021/06/08 14:37:50;;;;;;;19.05;16.40;;;;;;;;;;5050149;28;37985;-80
2021/06/08 14:40:16;;;;;;;19.88;16.25;;;;;;;;;;5043894;28;40102;-80
2021/06/08 14:42:43;;;;;;;21.40;18.08;;;;;;;;;;5048999;27;37401;-80